createdAt,value
2022-09-03T00:02:16.083Z,100242.91
2022-09-03T00:04:58.581Z,100240.59
2022-09-03T00:08:21.548Z,100240.22
2022-09-03T00:11:32.782Z,100238.28
2022-09-03T00:14:07.239Z,100245.25
2022-09-03T00:16:46.051Z,100253.78
2022-09-03T00:19:21.237Z,100255.34
2022-09-03T00:21:58.925Z,100256.88
2022-09-03T00:24:33.901Z,100254.53
2022-09-03T00:27:07.573Z,100254.97
2022-09-03T00:29:46.343Z,100247.22
2022-09-03T00:32:26.474Z,100248.38
2022-09-03T00:35:07.824Z,100245.66
2022-09-03T00:37:38.221Z,100246.84
2022-09-03T00:40:23.229Z,100254.59
2022-09-03T00:43:06.476Z,100251.88
2022-09-03T00:46:06.197Z,100238.72
2022-09-03T00:49:28.784Z,100254.59
2022-09-03T00:52:15.127Z,100259.59
2022-09-03T00:55:26.352Z,100263.09
2022-09-03T00:58:30.716Z,100268.09
2022-09-03T01:00:59.253Z,100268.47
2022-09-03T01:04:07.724Z,100274.69
2022-09-03T01:07:15.999Z,100281.22
2022-09-03T01:10:27.415Z,100273.88
2022-09-03T01:12:58.277Z,100276.56
2022-09-03T01:15:54.454Z,100276.19
2022-09-03T01:26:22.933Z,100280.09
2022-09-03T01:29:22.211Z,100280.09
2022-09-03T01:32:15.355Z,100279.28
2022-09-03T01:45:31.605Z,100287.75
2022-09-03T01:48:24.408Z,100287.00
2022-09-03T01:51:02.494Z,100278.47
2022-09-03T01:53:45.749Z,100290.09
2022-09-03T01:56:50.692Z,100288.97
2022-09-03T01:59:35.581Z,100288.16
2022-09-03T02:02:12.780Z,100292.44
2022-09-03T02:04:40.386Z,100291.66
2022-09-03T02:07:08.236Z,100304.41
2022-09-03T02:09:35.793Z,100294.38
2022-09-03T02:12:18.719Z,100295.53
2022-09-03T02:14:47.388Z,100296.66
2022-09-03T02:17:14.987Z,100304.78
2022-09-03T02:19:42.654Z,100296.28
2022-09-03T02:22:10.646Z,100294.75
2022-09-03T02:24:38.487Z,100291.59
2022-09-03T02:27:06.269Z,100297.03
2022-09-03T02:29:34.123Z,100287.75
2022-09-03T02:32:01.910Z,100296.66
2022-09-03T02:34:30.460Z,100290.84
2022-09-03T02:36:58.284Z,100297.03
2022-09-03T02:39:27.684Z,100290.09
2022-09-03T02:41:57.583Z,100290.09
2022-09-03T02:44:34.624Z,100289.72
2022-09-03T02:47:07.426Z,100282.72
2022-09-03T02:49:35.935Z,100288.16
2022-09-03T02:52:11.895Z,100290.84
2022-09-03T02:54:40.900Z,100283.91
2022-09-03T02:57:11.320Z,100287.75
2022-09-03T02:59:39.887Z,100287.75
2022-09-03T03:02:08.757Z,100292.75
2022-09-03T03:04:36.453Z,100288.47
2022-09-03T03:07:04.639Z,100286.16
2022-09-03T03:09:32.633Z,100279.97
2022-09-03T03:12:00.288Z,100279.19
2022-09-03T03:14:27.959Z,100288.47
2022-09-03T03:16:55.832Z,100282.28
2022-09-03T03:19:23.492Z,100285.38
2022-09-03T03:21:51.045Z,100282.66
2022-09-03T03:24:18.991Z,100290.81
2022-09-03T03:26:46.579Z,100287.69
2022-09-03T03:29:18.013Z,100289.22
2022-09-03T03:31:45.915Z,100286.91
2022-09-03T03:34:13.450Z,100286.91
2022-09-03T03:36:41.058Z,100292.72
2022-09-03T03:39:11.398Z,100300.84
2022-09-03T03:41:39.306Z,100296.97
2022-09-03T03:44:08.435Z,100307.81
2022-09-03T03:46:40.887Z,100310.13
2022-09-03T03:49:26.773Z,100303.88
2022-09-03T03:51:54.591Z,100313.19
2022-09-03T03:54:22.537Z,100322.47
2022-09-03T03:56:55.591Z,100319.38
2022-09-03T03:59:23.829Z,100313.97
2022-09-03T04:01:55.214Z,100315.53
2022-09-03T04:04:23.094Z,100309.72
2022-09-03T04:06:50.888Z,100317.84
2022-09-03T04:09:18.474Z,100308.56
2022-09-03T04:11:45.987Z,100297.72
2022-09-03T04:14:13.842Z,100298.47
2022-09-03T04:16:41.450Z,100296.56
2022-09-03T04:19:09.072Z,100296.94
2022-09-03T04:21:36.970Z,100295.38
2022-09-03T04:24:05.746Z,100300.78
2022-09-03T04:26:34.304Z,100299.63
2022-09-03T04:29:05.254Z,100305.00
2022-09-03T04:31:34.564Z,100296.44
2022-09-03T04:34:02.656Z,100300.69
2022-09-03T04:36:31.592Z,100305.72
2022-09-03T04:39:01.841Z,100311.50
2022-09-03T04:41:31.648Z,100309.19
2022-09-03T04:44:00.453Z,100310.31
2022-09-03T04:46:33.473Z,100306.84
2022-09-03T04:49:02.761Z,100304.53
2022-09-03T04:51:31.716Z,100306.84
2022-09-03T04:54:02.292Z,100301.44
2022-09-03T04:56:39.884Z,100302.97
2022-09-03T04:59:09.940Z,100298.72
2022-09-03T05:01:39.900Z,100297.53
2022-09-03T05:04:08.743Z,100302.22
2022-09-03T05:06:37.421Z,100305.31
2022-09-03T05:09:06.646Z,100309.22
2022-09-03T05:11:34.356Z,100308.47
2022-09-03T05:14:02.097Z,100302.72
2022-09-03T05:16:31.124Z,100305.06
2022-09-03T05:19:01.260Z,100305.44
2022-09-03T05:21:30.770Z,100303.94
2022-09-03T05:24:01.776Z,100306.31
2022-09-03T05:26:36.604Z,100296.28
2022-09-03T05:29:07.937Z,100310.28
2022-09-03T05:31:39.294Z,100304.88
2022-09-03T05:34:08.388Z,100308.75
2022-09-03T05:36:38.348Z,100309.56
2022-09-03T05:39:06.804Z,100311.09
2022-09-03T05:41:35.006Z,100315.78
2022-09-03T05:44:04.031Z,100321.63
2022-09-03T05:46:33.710Z,100320.47
2022-09-03T05:49:06.928Z,100325.53
2022-09-03T05:51:37.295Z,100321.28
2022-09-03T05:54:05.544Z,100319.34
2022-09-03T05:56:35.766Z,100325.97
2022-09-03T05:59:07.507Z,100327.53
2022-09-03T06:01:50.307Z,100325.59
2022-09-03T06:04:20.595Z,100324.81
2022-09-03T06:06:49.047Z,100334.53
2022-09-03T06:09:19.972Z,100340.34
2022-09-03T06:11:50.155Z,100336.88
2022-09-03T06:14:18.546Z,100335.28
2022-09-03T06:16:49.975Z,100331.41
2022-09-03T06:19:18.325Z,100327.53
2022-09-03T06:21:47.450Z,100336.09
2022-09-03T06:24:28.064Z,100335.72
2022-09-03T06:26:57.400Z,100337.66
2022-09-03T06:29:25.552Z,100336.91
2022-09-03T06:31:53.270Z,100330.72
2022-09-03T06:34:22.780Z,100318.28
2022-09-03T06:36:54.610Z,100343.13
2022-09-03T06:39:22.885Z,100333.03
2022-09-03T06:41:52.098Z,100332.66
2022-09-03T06:44:27.515Z,100330.31
2022-09-03T06:46:55.179Z,100339.25
2022-09-03T06:49:23.048Z,100335.38
2022-09-03T06:51:50.907Z,100331.47
2022-09-03T06:54:19.080Z,100339.22
2022-09-03T06:56:46.654Z,100334.59
2022-09-03T06:59:15.423Z,100338.06
2022-09-03T07:01:46.287Z,100343.09
2022-09-03T07:04:20.432Z,100343.88
2022-09-03T07:06:48.693Z,100337.66
2022-09-03T07:09:18.336Z,100337.69
2022-09-03T07:11:48.331Z,100339.97
2022-09-03T07:14:21.455Z,100337.69
2022-09-03T07:16:50.432Z,100339.19
2022-09-03T07:19:18.673Z,100341.50
2022-09-03T07:21:50.934Z,100349.69
2022-09-03T07:24:22.264Z,100358.97
2022-09-03T07:26:51.701Z,100343.88
2022-09-03T07:29:22.662Z,100350.84
2022-09-03T07:31:52.356Z,100350.84
2022-09-03T07:34:25.607Z,100359.38
2022-09-03T07:36:54.907Z,100361.72
2022-09-03T07:39:22.659Z,100360.94
2022-09-03T07:41:50.693Z,100369.88
2022-09-03T07:44:20.090Z,100354.75
2022-09-03T07:46:51.347Z,100355.13
2022-09-03T07:49:21.204Z,100364.06
2022-09-03T07:51:52.374Z,100366.38
2022-09-03T07:54:21.737Z,100369.50
2022-09-03T07:56:49.975Z,100367.13
2022-09-03T07:59:18.027Z,100370.19
2022-09-03T08:01:45.559Z,100369.44
2022-09-03T08:04:13.543Z,100372.16
2022-09-03T08:06:42.300Z,100379.91
2022-09-03T08:09:13.747Z,100378.38
2022-09-03T08:11:43.885Z,100376.81
2022-09-03T08:14:14.048Z,100374.13
2022-09-03T08:16:47.961Z,100363.25
2022-09-03T08:19:18.575Z,100369.41
2022-09-03T08:21:46.618Z,100372.50
2022-09-03T08:24:18.179Z,100369.69
2022-09-03T08:26:51.337Z,100374.72
2022-09-03T08:29:21.360Z,100361.84
2022-09-03T08:31:49.168Z,100365.31
2022-09-03T08:34:17.989Z,100362.13
2022-09-03T08:36:47.335Z,100362.84
2022-09-03T08:39:16.167Z,100369.06
2022-09-03T08:42:26.760Z,100367.94
2022-09-03T08:45:02.757Z,100369.91
2022-09-03T08:47:48.360Z,100359.38
2022-09-03T08:50:56.178Z,100370.63
2022-09-03T08:53:46.880Z,100367.47
2022-09-03T08:56:32.244Z,100369.38
2022-09-03T08:59:02.049Z,100361.59
2022-09-03T09:02:20.824Z,100364.25
2022-09-03T09:05:20.787Z,100362.59
2022-09-03T09:07:53.525Z,100362.50
2022-09-03T09:10:48.050Z,100370.97
2022-09-03T09:13:54.190Z,100376.38
2022-09-03T09:16:46.169Z,100372.78
2022-09-03T09:28:38.398Z,100390.94
2022-09-03T09:31:12.603Z,100390.13
2022-09-03T09:33:40.257Z,100387.09
2022-09-03T09:36:17.116Z,100385.53
2022-09-03T09:38:47.390Z,100392.47
2022-09-03T09:41:28.980Z,100383.13
2022-09-03T09:44:03.406Z,100381.19
2022-09-03T09:46:54.138Z,100405.00
2022-09-03T09:49:56.171Z,100399.56
2022-09-03T09:52:29.437Z,100395.66
2022-09-03T09:55:11.241Z,100397.25
2022-09-03T09:57:40.454Z,100399.19
2022-09-03T10:00:16.016Z,100399.59
2022-09-03T10:02:54.546Z,100400.31
2022-09-03T10:05:26.559Z,100394.81
2022-09-03T10:08:02.171Z,100387.00
2022-09-03T10:10:35.062Z,100390.94
2022-09-03T10:13:12.744Z,100395.19
2022-09-03T10:15:55.855Z,100384.25
2022-09-03T10:18:44.786Z,100395.38
2022-09-03T10:21:51.421Z,100387.47
2022-09-03T10:24:42.353Z,100387.00
2022-09-03T10:27:14.367Z,100394.41
2022-09-03T10:29:42.524Z,100389.00
2022-09-03T10:32:44.946Z,100388.63
2022-09-03T10:35:39.607Z,100386.03
2022-09-03T10:38:31.517Z,100388.81
2022-09-03T10:41:05.116Z,100387.31
2022-09-03T10:44:12.478Z,100390.84
2022-09-03T10:46:52.215Z,100383.03
2022-09-03T10:50:04.432Z,100384.50
2022-09-03T10:53:12.152Z,100394.13
2022-09-03T10:56:02.736Z,100385.09
2022-09-03T10:58:49.957Z,100395.91
2022-09-03T11:01:47.916Z,100396.63
2022-09-03T11:04:19.976Z,100383.38
2022-09-03T11:06:54.958Z,100389.53
2022-09-03T11:09:40.436Z,100380.50
2022-09-03T11:12:23.223Z,100391.06
2022-09-03T11:14:59.832Z,100382.06
2022-09-03T11:17:38.808Z,100381.97
2022-09-03T11:20:15.634Z,100381.56
2022-09-03T11:22:45.318Z,100380.75
2022-09-03T11:25:20.421Z,100376.03
2022-09-03T11:28:03.381Z,100383.38
2022-09-03T11:30:41.017Z,100377.50
2022-09-03T11:33:11.778Z,100375.13
2022-09-03T11:35:42.954Z,100369.25
2022-09-03T11:38:16.910Z,100368.44
2022-09-03T11:41:16.035Z,100373.47
2022-09-03T11:43:44.373Z,100378.09
2022-09-03T11:46:21.804Z,100378.91
2022-09-03T11:48:56.542Z,100376.47
2022-09-03T11:51:33.986Z,100364.66
2022-09-03T11:54:03.200Z,100367.56
2022-09-03T11:56:35.919Z,100366.56
2022-09-03T11:59:13.627Z,100371.72
2022-09-03T12:02:01.703Z,100360.84
2022-09-03T12:04:49.268Z,100366.41
2022-09-03T12:07:49.797Z,100366.72
2022-09-03T12:10:41.790Z,100359.66
2022-09-03T12:13:30.170Z,100358.00
2022-09-03T12:16:27.450Z,100358.41
2022-09-03T12:19:04.555Z,100367.50
2022-09-03T12:21:50.803Z,100357.69
2022-09-03T12:24:20.323Z,100360.47
2022-09-03T12:26:48.034Z,100349.84
2022-09-03T12:29:27.870Z,100356.56
2022-09-03T12:32:06.179Z,100358.16
2022-09-03T12:34:33.950Z,100350.88
2022-09-03T12:37:03.482Z,100345.94
2022-09-03T12:42:28.348Z,100353.81
2022-09-03T12:44:56.495Z,100348.06
2022-09-03T12:47:35.691Z,100347.47
2022-09-03T12:50:25.454Z,100342.06
2022-09-03T12:52:56.344Z,100337.84
2022-09-03T12:55:35.370Z,100331.31
2022-09-03T12:58:21.673Z,100334.03
2022-09-03T13:01:00.036Z,100323.47
2022-09-03T13:03:58.728Z,100324.84
2022-09-03T13:06:33.539Z,100321.59
2022-09-03T13:09:08.592Z,100325.56
2022-09-03T13:11:37.358Z,100331.88
2022-09-03T13:14:05.865Z,100327.94
2022-09-03T13:16:45.550Z,100329.22
2022-09-03T13:19:46.234Z,100333.19
2022-09-03T13:23:10.476Z,100325.16
2022-09-03T13:26:16.297Z,100326.00
2022-09-03T13:28:57.570Z,100323.75
2022-09-03T13:32:01.696Z,100323.06
2022-09-03T13:34:35.443Z,100324.69
2022-09-03T14:11:21.380Z,100314.34
2022-09-03T14:14:03.131Z,100312.38
2022-09-03T14:17:08.906Z,100318.91
2022-09-03T14:20:00.345Z,100305.94
2022-09-03T14:22:43.670Z,100312.00
2022-09-03T14:25:25.075Z,100316.06
2022-09-03T14:27:55.570Z,100307.19
2022-09-03T14:30:48.115Z,100313.50
2022-09-03T14:34:11.875Z,100307.25
2022-09-03T14:36:53.350Z,100303.31
2022-09-03T14:39:59.157Z,100300.16
2022-09-03T14:43:00.741Z,100302.47
2022-09-03T14:45:50.946Z,100299.72
2022-09-03T14:48:55.996Z,100313.00
2022-09-03T14:51:56.606Z,100303.19
2022-09-03T14:54:46.292Z,100293.75
2022-09-03T14:57:32.166Z,100296.06
2022-09-03T15:00:31.566Z,100302.31
2022-09-03T15:03:43.039Z,100306.25
2022-09-03T15:06:40.937Z,100315.31
2022-09-03T15:10:19.216Z,100303.19
2022-09-03T15:12:52.175Z,100307.09
2022-09-03T15:15:45.850Z,100297.34
2022-09-03T15:18:38.550Z,100294.97
2022-09-03T15:21:40.334Z,100295.31
2022-09-03T15:24:32.622Z,100295.31
2022-09-03T15:27:43.165Z,100306.69
2022-09-03T15:30:21.057Z,100310.25
2022-09-03T15:33:40.040Z,100307.94
2022-09-03T15:36:26.717Z,100310.00
2022-09-03T15:42:19.300Z,100301.94
2022-09-03T15:44:52.737Z,100294.22
2022-09-03T16:27:08.752Z,100294.31
2022-09-03T16:29:39.980Z,100288.91
2022-09-03T16:32:16.670Z,100289.75
2022-09-03T16:34:57.244Z,100302.28
2022-09-03T16:38:06.016Z,100301.22
2022-09-03T16:40:42.924Z,100300.94
2022-09-03T16:43:40.243Z,100296.44
2022-09-03T16:46:23.876Z,100304.34
2022-09-03T16:49:09.767Z,100307.97
2022-09-03T16:51:52.805Z,100307.25
2022-09-03T16:54:55.898Z,100304.59
2022-09-03T16:57:59.110Z,100303.44
2022-09-03T17:01:09.940Z,100316.03
2022-09-03T17:04:02.341Z,100310.25
2022-09-03T17:07:01.074Z,100302.59
2022-09-03T17:09:28.807Z,100295.69
2022-09-03T17:12:20.776Z,100293.47
2022-09-03T17:15:11.972Z,100306.09
2022-09-03T17:17:46.411Z,100314.03
2022-09-03T17:20:47.164Z,100304.84
2022-09-03T17:24:03.557Z,100318.63
2022-09-03T17:27:13.077Z,100318.03
2022-09-03T17:29:43.119Z,100322.47
2022-09-03T17:32:37.348Z,100319.47
2022-09-03T17:35:26.159Z,100322.72
2022-09-03T17:37:55.168Z,100319.63
2022-09-03T17:41:13.383Z,100322.84
2022-09-03T17:44:26.103Z,100312.84
2022-09-03T17:47:05.328Z,100326.88
2022-09-03T17:49:54.688Z,100321.88
2022-09-03T17:52:49.693Z,100323.47
2022-09-03T17:55:45.417Z,100329.38
2022-09-03T17:58:31.015Z,100328.63
2022-09-03T18:01:21.582Z,100327.47
2022-09-03T18:04:14.087Z,100334.88
2022-09-03T18:06:42.051Z,100342.69
2022-09-03T18:09:52.427Z,100349.31
2022-09-03T18:12:38.888Z,100348.19
2022-09-03T18:15:18.972Z,100350.56
2022-09-03T18:18:05.192Z,100344.38
2022-09-03T18:21:23.289Z,100346.72
2022-09-03T18:24:33.776Z,100359.22
2022-09-03T18:27:51.788Z,100362.34
2022-09-03T18:30:44.123Z,100371.31
2022-09-03T18:33:38.680Z,100370.91
2022-09-03T18:36:25.440Z,100366.69
2022-09-03T18:39:11.738Z,100372.53
2022-09-03T18:42:29.702Z,100376.81
2022-09-03T18:46:34.612Z,100367.50
2022-09-03T18:49:12.778Z,100368.66
2022-09-03T18:52:45.727Z,100363.25
2022-09-03T18:55:55.928Z,100374.13
2022-09-03T18:58:51.705Z,100369.47
2022-09-03T19:01:58.738Z,100374.16
2022-09-03T19:05:44.564Z,100379.59
2022-09-03T19:08:47.617Z,100382.69
2022-09-03T19:11:53.526Z,100380.34
2022-09-03T19:14:53.958Z,100382.28
2022-09-03T19:18:14.091Z,100379.56
2022-09-03T19:21:27.165Z,100386.56
2022-09-03T19:24:21.050Z,100388.53
2022-09-03T19:27:47.695Z,100393.94
2022-09-03T19:30:42.221Z,100395.88
2022-09-03T19:33:45.540Z,100388.53
2022-09-03T19:37:10.311Z,100392.41
2022-09-03T19:40:05.609Z,100387.34
2022-09-03T19:43:13.117Z,100391.63
2022-09-03T19:46:05.585Z,100395.88
2022-09-03T19:49:17.236Z,100402.47
2022-09-03T19:52:09.499Z,100401.31
2022-09-03T19:54:57.445Z,100400.94
2022-09-03T19:57:48.395Z,100404.03
2022-09-03T20:00:35.975Z,100407.53
2022-09-03T20:03:24.617Z,100411.00
2022-09-03T20:06:11.891Z,100403.25
2022-09-03T20:09:01.435Z,100404.44
2022-09-03T20:11:31.139Z,100400.53
2022-09-03T20:14:15.267Z,100405.97
2022-09-03T20:17:04.956Z,100410.63
2022-09-03T20:19:48.902Z,100403.63
2022-09-03T20:22:29.186Z,100399.00
2022-09-03T20:25:26.969Z,100403.25
2022-09-03T20:28:32.991Z,100416.06
2022-09-03T20:31:17.347Z,100419.56
2022-09-03T20:34:24.635Z,100417.59
2022-09-03T20:37:50.806Z,100410.25
2022-09-03T20:40:52.414Z,100416.84
2022-09-03T20:43:40.885Z,100414.50
2022-09-03T20:46:41.318Z,100420.72
2022-09-03T20:50:03.856Z,100426.19
2022-09-03T20:53:05.471Z,100413.75
2022-09-03T20:56:17.107Z,100408.31
2022-09-03T20:59:32.651Z,100419.94
2022-09-03T21:02:19.196Z,100421.91
2022-09-03T21:41:26.859Z,100431.56
2022-09-03T21:44:19.235Z,100426.94
2022-09-03T21:46:57.030Z,100433.91
2022-09-03T21:49:39.994Z,100433.13
2022-09-03T21:52:21.392Z,100428.09
2022-09-03T21:55:21.835Z,100437.03
2022-09-03T21:58:38.895Z,100433.94
2022-09-03T22:01:27.284Z,100440.91
2022-09-03T22:03:55.896Z,100444.00
2022-09-03T22:07:11.877Z,100441.69
2022-09-03T22:10:10.735Z,100436.25
2022-09-03T22:12:38.406Z,100438.19
2022-09-03T22:15:13.308Z,100436.63
2022-09-03T22:18:07.431Z,100430.03
2022-09-03T22:20:37.132Z,100440.50
2022-09-03T22:23:20.477Z,100435.47
2022-09-03T22:26:10.998Z,100437.41
2022-09-03T22:28:49.372Z,100435.50
2022-09-03T22:31:37.846Z,100444.03
2022-09-03T22:34:42.263Z,100439.75
2022-09-03T22:37:52.616Z,100433.94
2022-09-03T22:40:40.102Z,100440.53
2022-09-03T22:43:32.222Z,100444.00
2022-09-03T22:46:13.022Z,100438.19
2022-09-03T22:49:14.305Z,100430.81
2022-09-03T22:52:26.528Z,100426.94
2022-09-03T22:55:26.073Z,100433.13
2022-09-03T22:58:11.534Z,100431.63
2022-09-03T23:00:48.255Z,100430.84
2022-09-03T23:03:27.552Z,100428.88
2022-09-03T23:06:07.032Z,100427.69
2022-09-03T23:08:59.023Z,100430.03
2022-09-03T23:11:51.654Z,100426.16
2022-09-03T23:14:32.307Z,100422.28
2022-09-03T23:17:13.368Z,100416.06
2022-09-03T23:19:47.220Z,100416.84
2022-09-03T23:22:44.871Z,100417.59
2022-09-03T23:25:42.141Z,100418.38
2022-09-03T23:28:14.977Z,100419.56
2022-09-03T23:30:43.030Z,100401.31
2022-09-03T23:33:10.741Z,100414.13
2022-09-03T23:36:43.326Z,100414.13
2022-09-03T23:39:53.208Z,100416.84
2022-09-03T23:43:03.937Z,100419.94
2022-09-03T23:46:08.035Z,100424.97
2022-09-03T23:48:54.241Z,100419.94
2022-09-03T23:51:38.133Z,100416.03
2022-09-03T23:54:29.838Z,100424.19
2022-09-03T23:57:04.370Z,100413.72
2022-09-03T23:59:52.435Z,100419.16
